WetterOnline ( https://www.wetteronline.de )

Wetter aktuell Obermeitingen

Aktuelles Wetter: Augsburg/Mühlhausen (477m)

6-stündlich | Neueste Meldungen
Ortszeit Temperatur Wetter
So, 31.05. 2:00 7.5° C bewölkt
Sa, 30.05. 20:00 14.1° C bedeckt
Sa, 30.05. 14:00 15.0° C bewölkt
Sa, 30.05. 8:00 11.4° C leicht bewölkt
Sa, 30.05. 2:00 5.1° C wolkenlos
Fr, 29.05. 20:00 14.9° C bewölkt
Fr, 29.05. 14:00 14.5° C bewölkt
Fr, 29.05. 8:00 9.5° C leicht bewölkt
Ortszeit Temperatur Wetter
So, 31.05. 6:50 10° C -
So, 31.05. 6:30 8.7° C bedeckt
So, 31.05. 6:20 8.7° C bedeckt
So, 31.05. 6:10 8.5° C bewölkt
So, 31.05. 6:00 8.6° C wolkig
So, 31.05. 5:50 8.6° C wolkig
So, 31.05. 5:30 8.6° C bedeckt
So, 31.05. 5:00 9.4° C bedeckt
So, 31.05. 4:30 9.1° C bedeckt
So, 31.05. 4:00 9.4° C bedeckt
So, 31.05. 3:30 8.5° C bedeckt
Ortszeit Relative Feuchte Sichtweite
So, 31.05. 2:00 81% 45 km
Sa, 30.05. 20:00 56% 70 km
Sa, 30.05. 14:00 54% 65 km
Sa, 30.05. 8:00 64% 19 km
Sa, 30.05. 2:00 97% 18 km
Fr, 29.05. 20:00 54% 70 km
Fr, 29.05. 14:00 61% 50 km
Fr, 29.05. 8:00 78% 60 km
Ortszeit Relative Feuchte Sichtweite
So, 31.05. 6:50 71% >10 km
So, 31.05. 6:30 71% 70 km
So, 31.05. 6:20 71% -
So, 31.05. 6:10 72% -
So, 31.05. 6:00 72% 70 km
So, 31.05. 5:50 72% -
So, 31.05. 5:30 74% 70 km
So, 31.05. 5:00 69% 70 km
So, 31.05. 4:30 73% 70 km
So, 31.05. 4:00 72% 65 km
So, 31.05. 3:30 81% 40 km
Ortszeit Niederschlagsmenge Niederschlagsart
So, 31.05. 2:00 0.0 l/m2 in 6 Std. -
Sa, 30.05. 20:00 0.0 l/m2 in 12 Std. -
Sa, 30.05. 14:00 0.0 l/m2 in 6 Std. -
Sa, 30.05. 8:00 0.0 l/m2 in 12 Std. -
Sa, 30.05. 2:00 0.0 l/m2 in 6 Std. -
Fr, 29.05. 20:00 0.1 l/m2 in 12 Std. Regen
Fr, 29.05. 14:00 0.1 l/m2 in 6 Std. Regen
Fr, 29.05. 8:00 0.1 l/m2 in 12 Std. Regen
Ortszeit Niederschlagsmenge Niederschlagsart
So, 31.05. 6:50 keine Meldung -
So, 31.05. 6:30 0.0 l/m2 in 1 Std. -
So, 31.05. 6:20 keine Meldung -
So, 31.05. 6:10 keine Meldung -
So, 31.05. 6:00 0.0 l/m2 in 1 Std. -
So, 31.05. 5:50 keine Meldung -
So, 31.05. 5:30 0.0 l/m2 in 1 Std. -
So, 31.05. 5:00 0.0 l/m2 in 1 Std. -
So, 31.05. 4:30 0.0 l/m2 in 1 Std. -
So, 31.05. 4:00 0.0 l/m2 in 1 Std. -
So, 31.05. 3:30 0.0 l/m2 in 1 Std. -
Ortszeit Stärke Spitze Richtung
km/h Bft. km/h Grad Sektor
So, 31.05. 2:00 0 0 14 - -
Sa, 30.05. 20:00 11 2 25 90° O
Sa, 30.05. 14:00 14 3 29 40° NO
Sa, 30.05. 8:00 15 3 26 70° O
Sa, 30.05. 2:00 7 2 20 60° NO
Fr, 29.05. 20:00 15 3 31 90° O
Fr, 29.05. 14:00 17 3 43 60° NO
Fr, 29.05. 8:00 6 1 9 30° NO
Ortszeit Stärke Spitze Richtung
km/h Bft. km/h Grad Sektor
So, 31.05. 6:50 6 1 - 20° N
So, 31.05. 6:30 4 1 7 30° NO
So, 31.05. 6:20 4 1 - 30° NO
So, 31.05. 6:10 4 1 - 40° NO
So, 31.05. 6:00 7 2 11 320° NW
So, 31.05. 5:50 7 2 - 320° NW
So, 31.05. 5:30 7 2 11 70° O
So, 31.05. 5:00 4 1 11 40° NO
So, 31.05. 4:30 6 1 11 70° O
So, 31.05. 4:00 6 1 9 70° O
So, 31.05. 3:30 4 1 7 290° W
Ortszeit Untergrenze Bedeckung Gattung
total tief tief mittel hoch
So, 31.05. 2:00 2400 m 7/8 7/8 - - -
Sa, 30.05. 20:00 2400 m 8/8 8/8 - - -
Sa, 30.05. 14:00 180 m 7/8 7/8 - - -
Sa, 30.05. 8:00 7500 m 8/8 0/8 - - -
Sa, 30.05. 2:00 - 0/8 0/8 - - -
Fr, 29.05. 20:00 2400 m 7/8 7/8 - - -
Fr, 29.05. 14:00 1380 m 7/8 7/8 - - -
Fr, 29.05. 8:00 2100 m 2/8 5/8 - - -
Ortszeit Bedeckungsgrad in Achtel und Wolkenuntergrenze
So, 31.05. 6:50 -
So, 31.05. 6:30 8(6000m)
So, 31.05. 6:20 8(6000m)
So, 31.05. 6:10 6(6300m) 7(6900m)
So, 31.05. 6:00 3(2400m) 7(6900m) 7(8100m)
So, 31.05. 5:50 3(2400m) 7(6900m) 7(8100m)
So, 31.05. 5:30 8(2400m)
So, 31.05. 5:00 8(2400m)
So, 31.05. 4:30 8(2100m)
So, 31.05. 4:00 8(2100m)
So, 31.05. 3:30 8(2100m)
Ortszeit Luftdruck NN (hPa) Tendenz (hPa in 3 Std.)
So, 31.05. 2:00 1021 - 0,4
Sa, 30.05. 20:00 1020 0,0
Sa, 30.05. 14:00 1020 - 0,8
Sa, 30.05. 8:00 1022 + 0,1
Sa, 30.05. 2:00 1024 - 0,4
Fr, 29.05. 20:00 1023 - 0,9
Fr, 29.05. 14:00 1025 - 1,1
Fr, 29.05. 8:00 1028 - 0,1
Ortszeit Luftdruck NN (hPa) Tendenz (hPa in 3 Std.)
So, 31.05. 6:50 1019 keine Meldung
So, 31.05. 6:30 1020 - 0,4
So, 31.05. 6:20 1020 keine Meldung
So, 31.05. 6:10 1020 keine Meldung
So, 31.05. 6:00 1020 - 0,6
So, 31.05. 5:50 1020 keine Meldung
So, 31.05. 5:30 1020 - 0,7
So, 31.05. 5:00 1020 - 0,8
So, 31.05. 4:30 1020 - 0,8
So, 31.05. 4:00 1020 - 0,9
So, 31.05. 3:30 1020 - 0,7
Ortszeit Schneehöhe (cm)
So, 31.05. 2:00 -
Sa, 30.05. 20:00 -
Sa, 30.05. 14:00 -
Sa, 30.05. 8:00 -
Sa, 30.05. 2:00 -
Fr, 29.05. 20:00 -
Fr, 29.05. 14:00 -
Fr, 29.05. 8:00 -
Ortszeit Schneehöhe (cm)
So, 31.05. 6:50 -
So, 31.05. 6:30 -
So, 31.05. 6:20 -
So, 31.05. 6:10 -
So, 31.05. 6:00 -
So, 31.05. 5:50 -
So, 31.05. 5:30 -
So, 31.05. 5:00 -
So, 31.05. 4:30 -
So, 31.05. 4:00 -
So, 31.05. 3:30 -
Link zu dieser Seite / Seite empfehlen

Das Wetter in ...